Ermelo Airport

Jump to: basic info | weather | runways | comments

Related pages: nearby airports | nearby navaids | notams | map

Basic information (top)

Codes: FAEO
Location: lon -26.495600, lat 29.979799, elev 5,700 ft / 1,737 m msl
Status: medium_airport

Weather (top)

Current conditions (rec'd 2014/09/30 14:53Z):

FAEO 301453Z 28018G29KT CAVOK 22/M11 Q1016

Airport forecast (rec'd 2013/12/24 03:38Z):

TAF FAEO 240000Z 2403/2412 30008KT 9999 BKN010 
      TEMPO 2403/2406 3000 BCFG BKN005 
      BECMG 2406/2408 SCT030 PROB40 
      TEMPO 2409/2412 5000 -TSRA FEW040CB 
      BECMG 2410/2412 25007KT TX25/2412ZTN14/2403Z

Runways (top)

13/31: 5,085 x 33 ft (1,550 x 10 m) — paved — not lighted — threshold 13 displaced 383 ft (117 m) — threshold 31 displaced 252 ft (77 m)

Latest comments (top)

No comments yet for Ermelo Airport

More... (top)

See also NOTAMs and nearby airports and navaids, or visit the Ermelo Airport page at the main OurAirports website..